sensor_id;sensor_type;location;lat;lon;timestamp;temperature;humidity
60723;DHT22;46574;52.818;6.516;2022-07-01T00:01:44;15.20;99.90
60723;DHT22;46574;52.818;6.516;2022-07-01T00:04:11;15.20;99.90
60723;DHT22;46574;52.818;6.516;2022-07-01T00:06:37;15.30;99.90
60723;DHT22;46574;52.818;6.516;2022-07-01T00:09:03;15.40;99.90
60723;DHT22;46574;52.818;6.516;2022-07-01T00:11:31;15.30;99.90
60723;DHT22;46574;52.818;6.516;2022-07-01T00:13:56;15.40;99.90
60723;DHT22;46574;52.818;6.516;2022-07-01T00:16:22;15.40;99.90
60723;DHT22;46574;52.818;6.516;2022-07-01T00:18:48;15.50;99.90
60723;DHT22;46574;52.818;6.516;2022-07-01T00:21:13;15.50;99.90
60723;DHT22;46574;52.818;6.516;2022-07-01T00:23:43;15.50;99.90
60723;DHT22;46574;52.818;6.516;2022-07-01T00:26:08;15.50;99.90
60723;DHT22;46574;52.818;6.516;2022-07-01T00:28:35;15.50;99.90
60723;DHT22;46574;52.818;6.516;2022-07-01T00:31:00;15.50;99.90
60723;DHT22;46574;52.818;6.516;2022-07-01T00:33:26;15.50;99.90
60723;DHT22;46574;52.818;6.516;2022-07-01T00:35:51;15.50;99.90
60723;DHT22;46574;52.818;6.516;2022-07-01T00:38:18;15.50;99.90
60723;DHT22;46574;52.818;6.516;2022-07-01T00:40:44;15.50;99.90
60723;DHT22;46574;52.818;6.516;2022-07-01T00:43:10;15.50;99.90
60723;DHT22;46574;52.818;6.516;2022-07-01T00:45:35;15.50;99.90
60723;DHT22;46574;52.818;6.516;2022-07-01T00:48:01;15.40;99.90
60723;DHT22;46574;52.818;6.516;2022-07-01T00:50:27;15.40;99.90
60723;DHT22;46574;52.818;6.516;2022-07-01T00:52:53;15.40;99.90
60723;DHT22;46574;52.818;6.516;2022-07-01T00:55:18;15.30;99.90
60723;DHT22;46574;52.818;6.516;2022-07-01T00:57:44;15.30;99.90
60723;DHT22;46574;52.818;6.516;2022-07-01T01:00:16;15.30;99.90
60723;DHT22;46574;52.818;6.516;2022-07-01T01:03:02;15.30;99.90
60723;DHT22;46574;52.818;6.516;2022-07-01T01:05:28;15.30;99.90
60723;DHT22;46574;52.818;6.516;2022-07-01T01:07:53;15.30;99.90
60723;DHT22;46574;52.818;6.516;2022-07-01T01:10:20;15.20;99.90
60723;DHT22;46574;52.818;6.516;2022-07-01T01:12:48;15.20;99.90
60723;DHT22;46574;52.818;6.516;2022-07-01T01:15:20;15.20;99.90
60723;DHT22;46574;52.818;6.516;2022-07-01T01:17:46;15.10;99.90
60723;DHT22;46574;52.818;6.516;2022-07-01T01:20:16;15.10;99.90
60723;DHT22;46574;52.818;6.516;2022-07-01T01:22:44;15.10;99.90
60723;DHT22;46574;52.818;6.516;2022-07-01T01:25:10;15.10;99.90
60723;DHT22;46574;52.818;6.516;2022-07-01T01:27:35;15.10;99.90
60723;DHT22;46574;52.818;6.516;2022-07-01T01:30:07;15.10;99.90
60723;DHT22;46574;52.818;6.516;2022-07-01T01:32:33;15.20;99.90
60723;DHT22;46574;52.818;6.516;2022-07-01T01:35:00;15.10;99.90
60723;DHT22;46574;52.818;6.516;2022-07-01T01:37:25;15.20;99.90
60723;DHT22;46574;52.818;6.516;2022-07-01T01:39:53;15.20;99.90
60723;DHT22;46574;52.818;6.516;2022-07-01T01:42:19;15.20;99.90
60723;DHT22;46574;52.818;6.516;2022-07-01T01:44:44;15.20;99.90
60723;DHT22;46574;52.818;6.516;2022-07-01T01:47:10;15.20;99.90
60723;DHT22;46574;52.818;6.516;2022-07-01T01:49:39;15.30;99.90
60723;DHT22;46574;52.818;6.516;2022-07-01T01:52:05;15.30;99.90
60723;DHT22;46574;52.818;6.516;2022-07-01T01:54:31;15.40;99.90
60723;DHT22;46574;52.818;6.516;2022-07-01T01:56:57;15.40;99.90
60723;DHT22;46574;52.818;6.516;2022-07-01T01:59:23;15.50;99.90
60723;DHT22;46574;52.818;6.516;2022-07-01T02:01:48;15.50;99.90
60723;DHT22;46574;52.818;6.516;2022-07-01T02:04:14;15.50;99.90
60723;DHT22;46574;52.818;6.516;2022-07-01T02:06:39;15.60;99.90
60723;DHT22;46574;52.818;6.516;2022-07-01T02:09:08;15.60;99.90
60723;DHT22;46574;52.818;6.516;2022-07-01T02:11:36;15.60;99.90
60723;DHT22;46574;52.818;6.516;2022-07-01T02:14:02;15.60;99.90
60723;DHT22;46574;52.818;6.516;2022-07-01T02:16:28;15.50;99.90
60723;DHT22;46574;52.818;6.516;2022-07-01T02:18:54;15.50;99.90
60723;DHT22;46574;52.818;6.516;2022-07-01T02:21:19;15.50;99.90
60723;DHT22;46574;52.818;6.516;2022-07-01T02:23:45;15.50;99.90
60723;DHT22;46574;52.818;6.516;2022-07-01T02:26:10;15.50;99.90
60723;DHT22;46574;52.818;6.516;2022-07-01T02:28:36;15.60;99.90
60723;DHT22;46574;52.818;6.516;2022-07-01T02:31:02;15.60;99.90
60723;DHT22;46574;52.818;6.516;2022-07-01T02:33:30;15.70;99.90
60723;DHT22;46574;52.818;6.516;2022-07-01T02:35:57;15.60;99.90
60723;DHT22;46574;52.818;6.516;2022-07-01T02:38:23;15.60;99.90
60723;DHT22;46574;52.818;6.516;2022-07-01T02:40:48;15.60;99.90
60723;DHT22;46574;52.818;6.516;2022-07-01T02:43:14;15.60;99.90
60723;DHT22;46574;52.818;6.516;2022-07-01T02:45:41;15.60;99.90
60723;DHT22;46574;52.818;6.516;2022-07-01T02:48:07;15.60;99.90
60723;DHT22;46574;52.818;6.516;2022-07-01T02:50:33;15.60;99.90
60723;DHT22;46574;52.818;6.516;2022-07-01T02:52:58;15.60;99.90
60723;DHT22;46574;52.818;6.516;2022-07-01T02:55:24;15.60;99.90
60723;DHT22;46574;52.818;6.516;2022-07-01T02:57:50;15.60;99.90
60723;DHT22;46574;52.818;6.516;2022-07-01T03:00:18;15.60;99.90
60723;DHT22;46574;52.818;6.516;2022-07-01T03:02:44;15.60;99.90
60723;DHT22;46574;52.818;6.516;2022-07-01T03:05:09;15.50;99.90
60723;DHT22;46574;52.818;6.516;2022-07-01T03:07:38;15.50;99.90
60723;DHT22;46574;52.818;6.516;2022-07-01T03:10:06;15.40;99.90
60723;DHT22;46574;52.818;6.516;2022-07-01T03:12:32;15.30;99.90
60723;DHT22;46574;52.818;6.516;2022-07-01T03:17:32;15.40;99.90
60723;DHT22;46574;52.818;6.516;2022-07-01T03:20:00;15.40;99.90
60723;DHT22;46574;52.818;6.516;2022-07-01T03:22:28;15.40;99.90
60723;DHT22;46574;52.818;6.516;2022-07-01T03:24:54;15.40;99.90
60723;DHT22;46574;52.818;6.516;2022-07-01T03:27:20;15.40;99.90
60723;DHT22;46574;52.818;6.516;2022-07-01T03:29:46;15.40;99.90
60723;DHT22;46574;52.818;6.516;2022-07-01T03:32:12;15.40;99.90
60723;DHT22;46574;52.818;6.516;2022-07-01T03:34:43;15.40;99.90
60723;DHT22;46574;52.818;6.516;2022-07-01T03:37:11;15.50;99.90
60723;DHT22;46574;52.818;6.516;2022-07-01T03:39:38;15.50;99.90
60723;DHT22;46574;52.818;6.516;2022-07-01T03:42:04;15.50;99.90
60723;DHT22;46574;52.818;6.516;2022-07-01T03:44:31;15.40;99.90
60723;DHT22;46574;52.818;6.516;2022-07-01T03:46:57;15.50;99.90
60723;DHT22;46574;52.818;6.516;2022-07-01T03:49:23;15.50;99.90
60723;DHT22;46574;52.818;6.516;2022-07-01T03:51:49;15.50;99.90
60723;DHT22;46574;52.818;6.516;2022-07-01T03:54:15;15.50;99.90
60723;DHT22;46574;52.818;6.516;2022-07-01T03:57:08;15.50;99.90
60723;DHT22;46574;52.818;6.516;2022-07-01T03:59:39;15.50;99.90
60723;DHT22;46574;52.818;6.516;2022-07-01T04:02:05;15.50;99.90
60723;DHT22;46574;52.818;6.516;2022-07-01T04:04:32;15.40;99.90
60723;DHT22;46574;52.818;6.516;2022-07-01T04:07:00;15.30;99.90
60723;DHT22;46574;52.818;6.516;2022-07-01T04:09:27;15.40;99.90
60723;DHT22;46574;52.818;6.516;2022-07-01T04:11:54;15.40;99.90
60723;DHT22;46574;52.818;6.516;2022-07-01T04:14:20;15.40;99.90
60723;DHT22;46574;52.818;6.516;2022-07-01T04:16:46;15.40;99.90
60723;DHT22;46574;52.818;6.516;2022-07-01T04:19:14;15.50;99.90
60723;DHT22;46574;52.818;6.516;2022-07-01T04:21:40;15.50;99.90
60723;DHT22;46574;52.818;6.516;2022-07-01T04:24:24;15.50;99.90
60723;DHT22;46574;52.818;6.516;2022-07-01T04:26:51;15.50;99.90
60723;DHT22;46574;52.818;6.516;2022-07-01T04:29:17;15.50;99.90
60723;DHT22;46574;52.818;6.516;2022-07-01T04:31:43;15.50;99.90
60723;DHT22;46574;52.818;6.516;2022-07-01T04:34:09;15.50;99.90
60723;DHT22;46574;52.818;6.516;2022-07-01T04:36:35;15.50;99.90
60723;DHT22;46574;52.818;6.516;2022-07-01T04:39:05;15.50;99.90
60723;DHT22;46574;52.818;6.516;2022-07-01T04:41:31;15.50;99.90
60723;DHT22;46574;52.818;6.516;2022-07-01T04:44:16;15.50;99.90
60723;DHT22;46574;52.818;6.516;2022-07-01T04:46:42;15.50;99.90
60723;DHT22;46574;52.818;6.516;2022-07-01T04:49:08;15.50;99.90
60723;DHT22;46574;52.818;6.516;2022-07-01T04:51:34;15.50;99.90
60723;DHT22;46574;52.818;6.516;2022-07-01T04:54:01;15.50;99.90
60723;DHT22;46574;52.818;6.516;2022-07-01T04:56:27;15.50;99.90
60723;DHT22;46574;52.818;6.516;2022-07-01T04:58:54;15.50;99.90
60723;DHT22;46574;52.818;6.516;2022-07-01T05:01:20;15.50;99.90
60723;DHT22;46574;52.818;6.516;2022-07-01T05:03:46;15.50;99.90
60723;DHT22;46574;52.818;6.516;2022-07-01T05:06:11;15.50;99.90
60723;DHT22;46574;52.818;6.516;2022-07-01T05:08:37;15.50;99.90
60723;DHT22;46574;52.818;6.516;2022-07-01T05:11:03;15.50;99.90
60723;DHT22;46574;52.818;6.516;2022-07-01T05:13:28;15.50;99.90
60723;DHT22;46574;52.818;6.516;2022-07-01T05:15:54;15.50;99.90
60723;DHT22;46574;52.818;6.516;2022-07-01T05:18:20;15.60;99.90
60723;DHT22;46574;52.818;6.516;2022-07-01T05:21:04;15.60;99.90
60723;DHT22;46574;52.818;6.516;2022-07-01T05:23:48;15.60;99.90
60723;DHT22;46574;52.818;6.516;2022-07-01T05:26:14;15.50;99.90
60723;DHT22;46574;52.818;6.516;2022-07-01T05:28:46;15.60;99.90
60723;DHT22;46574;52.818;6.516;2022-07-01T05:31:12;15.60;99.90
60723;DHT22;46574;52.818;6.516;2022-07-01T05:33:38;15.60;99.90
60723;DHT22;46574;52.818;6.516;2022-07-01T05:36:05;15.60;99.90
60723;DHT22;46574;52.818;6.516;2022-07-01T05:38:30;15.60;99.90
60723;DHT22;46574;52.818;6.516;2022-07-01T05:40:56;15.60;99.90
60723;DHT22;46574;52.818;6.516;2022-07-01T05:43:22;15.60;99.90
60723;DHT22;46574;52.818;6.516;2022-07-01T05:45:48;15.70;99.90
60723;DHT22;46574;52.818;6.516;2022-07-01T05:48:13;15.70;99.90
60723;DHT22;46574;52.818;6.516;2022-07-01T05:50:39;15.70;99.90
60723;DHT22;46574;52.818;6.516;2022-07-01T05:53:05;15.70;99.90
60723;DHT22;46574;52.818;6.516;2022-07-01T05:55:31;15.70;99.90
60723;DHT22;46574;52.818;6.516;2022-07-01T05:57:57;15.70;99.90
60723;DHT22;46574;52.818;6.516;2022-07-01T06:00:23;15.70;99.90
60723;DHT22;46574;52.818;6.516;2022-07-01T06:02:48;15.70;99.90
60723;DHT22;46574;52.818;6.516;2022-07-01T06:05:14;15.80;99.90
60723;DHT22;46574;52.818;6.516;2022-07-01T06:07:40;15.70;99.90
60723;DHT22;46574;52.818;6.516;2022-07-01T06:10:10;15.70;99.90
60723;DHT22;46574;52.818;6.516;2022-07-01T06:12:36;15.80;99.90
60723;DHT22;46574;52.818;6.516;2022-07-01T06:15:03;15.80;99.90
60723;DHT22;46574;52.818;6.516;2022-07-01T06:17:28;15.80;99.90
60723;DHT22;46574;52.818;6.516;2022-07-01T06:19:54;15.90;99.90
60723;DHT22;46574;52.818;6.516;2022-07-01T06:22:20;15.90;99.90
60723;DHT22;46574;52.818;6.516;2022-07-01T06:24:47;15.90;99.90
60723;DHT22;46574;52.818;6.516;2022-07-01T06:27:12;15.90;99.90
60723;DHT22;46574;52.818;6.516;2022-07-01T06:29:38;15.90;99.90
60723;DHT22;46574;52.818;6.516;2022-07-01T06:32:05;15.90;99.90
60723;DHT22;46574;52.818;6.516;2022-07-01T06:34:31;16.00;99.90
60723;DHT22;46574;52.818;6.516;2022-07-01T06:36:56;16.00;99.90
60723;DHT22;46574;52.818;6.516;2022-07-01T06:39:28;16.00;99.90
60723;DHT22;46574;52.818;6.516;2022-07-01T06:41:55;16.00;99.90
60723;DHT22;46574;52.818;6.516;2022-07-01T06:44:21;16.10;99.90
60723;DHT22;46574;52.818;6.516;2022-07-01T06:46:46;16.00;99.90
60723;DHT22;46574;52.818;6.516;2022-07-01T06:49:12;16.00;99.90
60723;DHT22;46574;52.818;6.516;2022-07-01T06:51:38;16.00;99.90
60723;DHT22;46574;52.818;6.516;2022-07-01T06:54:03;16.00;99.90
60723;DHT22;46574;52.818;6.516;2022-07-01T06:56:29;16.00;99.90
60723;DHT22;46574;52.818;6.516;2022-07-01T06:58:56;16.00;99.90
60723;DHT22;46574;52.818;6.516;2022-07-01T07:01:22;16.00;99.90
60723;DHT22;46574;52.818;6.516;2022-07-01T07:03:48;16.00;99.90
60723;DHT22;46574;52.818;6.516;2022-07-01T07:06:13;16.10;99.90
60723;DHT22;46574;52.818;6.516;2022-07-01T07:08:39;16.10;99.90
60723;DHT22;46574;52.818;6.516;2022-07-01T07:11:05;16.10;99.90
60723;DHT22;46574;52.818;6.516;2022-07-01T07:13:32;16.10;99.90
60723;DHT22;46574;52.818;6.516;2022-07-01T07:15:58;16.10;99.90
60723;DHT22;46574;52.818;6.516;2022-07-01T07:18:24;16.20;99.90
60723;DHT22;46574;52.818;6.516;2022-07-01T07:20:49;16.20;99.90
60723;DHT22;46574;52.818;6.516;2022-07-01T07:23:15;16.30;99.90
60723;DHT22;46574;52.818;6.516;2022-07-01T07:25:41;16.30;99.90
60723;DHT22;46574;52.818;6.516;2022-07-01T07:28:07;16.40;99.90
60723;DHT22;46574;52.818;6.516;2022-07-01T07:30:32;16.50;99.90
60723;DHT22;46574;52.818;6.516;2022-07-01T07:32:58;16.50;99.90
60723;DHT22;46574;52.818;6.516;2022-07-01T07:35:24;16.60;99.90
60723;DHT22;46574;52.818;6.516;2022-07-01T07:37:49;16.70;99.90
60723;DHT22;46574;52.818;6.516;2022-07-01T07:40:15;16.80;99.90
60723;DHT22;46574;52.818;6.516;2022-07-01T07:42:45;16.90;99.90
60723;DHT22;46574;52.818;6.516;2022-07-01T07:45:11;16.90;99.90
60723;DHT22;46574;52.818;6.516;2022-07-01T07:47:37;17.00;99.90
60723;DHT22;46574;52.818;6.516;2022-07-01T07:50:04;17.00;99.90
60723;DHT22;46574;52.818;6.516;2022-07-01T07:52:30;17.10;99.90
60723;DHT22;46574;52.818;6.516;2022-07-01T07:54:56;17.10;99.90
60723;DHT22;46574;52.818;6.516;2022-07-01T07:57:22;17.00;99.90
60723;DHT22;46574;52.818;6.516;2022-07-01T07:59:47;17.10;99.90
60723;DHT22;46574;52.818;6.516;2022-07-01T08:02:13;17.20;99.90
60723;DHT22;46574;52.818;6.516;2022-07-01T08:04:39;17.30;99.90
60723;DHT22;46574;52.818;6.516;2022-07-01T08:07:05;17.30;99.90
60723;DHT22;46574;52.818;6.516;2022-07-01T08:09:31;17.40;99.90
60723;DHT22;46574;52.818;6.516;2022-07-01T08:12:01;17.50;99.90
60723;DHT22;46574;52.818;6.516;2022-07-01T08:14:27;17.60;99.90
60723;DHT22;46574;52.818;6.516;2022-07-01T08:16:52;17.70;99.90
60723;DHT22;46574;52.818;6.516;2022-07-01T08:19:18;17.80;99.90
60723;DHT22;46574;52.818;6.516;2022-07-01T08:21:43;18.00;99.90
60723;DHT22;46574;52.818;6.516;2022-07-01T08:24:09;18.20;99.90
60723;DHT22;46574;52.818;6.516;2022-07-01T08:26:35;18.30;99.90
60723;DHT22;46574;52.818;6.516;2022-07-01T08:29:00;18.30;99.90
60723;DHT22;46574;52.818;6.516;2022-07-01T08:31:26;18.30;99.90
60723;DHT22;46574;52.818;6.516;2022-07-01T08:33:52;18.20;99.90
60723;DHT22;46574;52.818;6.516;2022-07-01T08:36:17;18.20;99.90
60723;DHT22;46574;52.818;6.516;2022-07-01T08:38:43;18.20;99.90
60723;DHT22;46574;52.818;6.516;2022-07-01T08:41:09;18.20;99.90
60723;DHT22;46574;52.818;6.516;2022-07-01T08:43:34;18.20;99.90
60723;DHT22;46574;52.818;6.516;2022-07-01T08:46:01;18.40;99.90
60723;DHT22;46574;52.818;6.516;2022-07-01T08:48:28;18.50;99.90
60723;DHT22;46574;52.818;6.516;2022-07-01T08:50:55;18.60;99.90
60723;DHT22;46574;52.818;6.516;2022-07-01T08:53:20;18.80;99.90
60723;DHT22;46574;52.818;6.516;2022-07-01T08:55:46;18.90;99.90
60723;DHT22;46574;52.818;6.516;2022-07-01T08:58:38;18.80;99.90
60723;DHT22;46574;52.818;6.516;2022-07-01T09:03:43;19.00;99.90
60723;DHT22;46574;52.818;6.516;2022-07-01T09:06:12;18.80;99.90
60723;DHT22;46574;52.818;6.516;2022-07-01T09:08:40;18.80;99.90
60723;DHT22;46574;52.818;6.516;2022-07-01T09:11:18;18.80;99.90
60723;DHT22;46574;52.818;6.516;2022-07-01T09:13:45;18.90;99.90
60723;DHT22;46574;52.818;6.516;2022-07-01T09:16:29;18.90;99.90
60723;DHT22;46574;52.818;6.516;2022-07-01T09:19:03;19.00;99.90
60723;DHT22;46574;52.818;6.516;2022-07-01T09:21:30;18.90;99.90
60723;DHT22;46574;52.818;6.516;2022-07-01T09:23:58;18.80;99.90
60723;DHT22;46574;52.818;6.516;2022-07-01T09:26:23;18.60;99.90
60723;DHT22;46574;52.818;6.516;2022-07-01T09:28:53;18.50;99.90
60723;DHT22;46574;52.818;6.516;2022-07-01T09:31:19;18.60;99.90
60723;DHT22;46574;52.818;6.516;2022-07-01T09:33:45;18.60;99.90
60723;DHT22;46574;52.818;6.516;2022-07-01T09:36:15;18.70;99.90
60723;DHT22;46574;52.818;6.516;2022-07-01T09:38:47;18.70;99.90
60723;DHT22;46574;52.818;6.516;2022-07-01T09:41:13;18.70;99.90
60723;DHT22;46574;52.818;6.516;2022-07-01T09:43:38;18.70;99.90
60723;DHT22;46574;52.818;6.516;2022-07-01T09:46:07;18.90;99.90
60723;DHT22;46574;52.818;6.516;2022-07-01T09:51:00;19.90;99.90
60723;DHT22;46574;52.818;6.516;2022-07-01T09:53:26;20.10;99.90
60723;DHT22;46574;52.818;6.516;2022-07-01T09:55:52;20.20;99.90
60723;DHT22;46574;52.818;6.516;2022-07-01T09:58:18;20.40;99.90
60723;DHT22;46574;52.818;6.516;2022-07-01T10:00:45;20.60;99.90
60723;DHT22;46574;52.818;6.516;2022-07-01T10:03:11;20.70;99.90
60723;DHT22;46574;52.818;6.516;2022-07-01T10:05:54;20.70;99.90
60723;DHT22;46574;52.818;6.516;2022-07-01T10:13:49;20.50;99.90
60723;DHT22;46574;52.818;6.516;2022-07-01T10:16:17;20.40;99.90
60723;DHT22;46574;52.818;6.516;2022-07-01T10:18:43;20.30;99.90
60723;DHT22;46574;52.818;6.516;2022-07-01T10:21:09;20.30;99.90
60723;DHT22;46574;52.818;6.516;2022-07-01T10:23:50;20.40;99.90
60723;DHT22;46574;52.818;6.516;2022-07-01T10:26:17;20.80;99.90
60723;DHT22;46574;52.818;6.516;2022-07-01T10:28:45;21.00;99.90
60723;DHT22;46574;52.818;6.516;2022-07-01T10:31:17;20.90;99.90
60723;DHT22;46574;52.818;6.516;2022-07-01T10:33:49;20.70;99.90
60723;DHT22;46574;52.818;6.516;2022-07-01T10:41:30;20.70;99.90
60723;DHT22;46574;52.818;6.516;2022-07-01T10:43:57;20.60;99.90
60723;DHT22;46574;52.818;6.516;2022-07-01T10:46:45;20.50;99.90
60723;DHT22;46574;52.818;6.516;2022-07-01T10:49:17;20.60;99.90
60723;DHT22;46574;52.818;6.516;2022-07-01T10:51:52;20.60;99.90
60723;DHT22;46574;52.818;6.516;2022-07-01T10:57:36;21.20;99.90
60723;DHT22;46574;52.818;6.516;2022-07-01T11:02:36;21.60;99.90
60723;DHT22;46574;52.818;6.516;2022-07-01T11:05:08;21.80;99.90
60723;DHT22;46574;52.818;6.516;2022-07-01T11:07:36;21.80;99.90
60723;DHT22;46574;52.818;6.516;2022-07-01T11:10:05;21.80;99.90
60723;DHT22;46574;52.818;6.516;2022-07-01T11:12:32;21.70;99.90
60723;DHT22;46574;52.818;6.516;2022-07-01T11:14:59;21.90;99.90
60723;DHT22;46574;52.818;6.516;2022-07-01T11:17:25;21.80;99.90
60723;DHT22;46574;52.818;6.516;2022-07-01T11:19:53;21.50;99.90
60723;DHT22;46574;52.818;6.516;2022-07-01T11:22:20;21.50;99.90
60723;DHT22;46574;52.818;6.516;2022-07-01T11:24:51;21.70;99.90
60723;DHT22;46574;52.818;6.516;2022-07-01T11:27:17;21.70;99.90
60723;DHT22;46574;52.818;6.516;2022-07-01T11:29:43;21.70;99.90
60723;DHT22;46574;52.818;6.516;2022-07-01T11:32:08;21.60;99.90
60723;DHT22;46574;52.818;6.516;2022-07-01T11:34:36;21.20;99.90
60723;DHT22;46574;52.818;6.516;2022-07-01T11:37:09;21.10;99.90
60723;DHT22;46574;52.818;6.516;2022-07-01T11:40:07;20.80;99.90
60723;DHT22;46574;52.818;6.516;2022-07-01T11:42:34;20.60;99.90
60723;DHT22;46574;52.818;6.516;2022-07-01T11:45:00;20.40;99.90
60723;DHT22;46574;52.818;6.516;2022-07-01T11:47:26;20.50;99.90
60723;DHT22;46574;52.818;6.516;2022-07-01T11:49:52;20.60;99.90
60723;DHT22;46574;52.818;6.516;2022-07-01T11:52:19;20.80;99.90
60723;DHT22;46574;52.818;6.516;2022-07-01T11:54:49;20.70;99.90
60723;DHT22;46574;52.818;6.516;2022-07-01T11:57:23;20.70;99.90
60723;DHT22;46574;52.818;6.516;2022-07-01T11:59:51;20.90;99.90
60723;DHT22;46574;52.818;6.516;2022-07-01T12:02:18;20.90;99.90
60723;DHT22;46574;52.818;6.516;2022-07-01T12:04:45;20.80;99.90
60723;DHT22;46574;52.818;6.516;2022-07-01T12:07:13;20.80;99.90
60723;DHT22;46574;52.818;6.516;2022-07-01T12:09:39;20.90;99.90
60723;DHT22;46574;52.818;6.516;2022-07-01T12:12:06;21.00;99.90
60723;DHT22;46574;52.818;6.516;2022-07-01T12:14:35;20.90;99.90
60723;DHT22;46574;52.818;6.516;2022-07-01T12:17:07;20.80;99.90
60723;DHT22;46574;52.818;6.516;2022-07-01T12:19:41;20.80;99.90
60723;DHT22;46574;52.818;6.516;2022-07-01T12:24:45;20.80;99.90
60723;DHT22;46574;52.818;6.516;2022-07-01T12:27:11;20.90;99.90
60723;DHT22;46574;52.818;6.516;2022-07-01T12:32:11;20.60;99.90
60723;DHT22;46574;52.818;6.516;2022-07-01T12:34:48;20.50;99.90
60723;DHT22;46574;52.818;6.516;2022-07-01T12:37:26;20.30;99.90
60723;DHT22;46574;52.818;6.516;2022-07-01T12:40:00;20.10;99.90
60723;DHT22;46574;52.818;6.516;2022-07-01T12:42:35;20.10;99.90
60723;DHT22;46574;52.818;6.516;2022-07-01T12:45:09;20.30;99.90
60723;DHT22;46574;52.818;6.516;2022-07-01T12:47:37;20.40;99.90
60723;DHT22;46574;52.818;6.516;2022-07-01T12:50:13;20.40;99.90
60723;DHT22;46574;52.818;6.516;2022-07-01T12:52:41;20.20;99.90
60723;DHT22;46574;52.818;6.516;2022-07-01T12:55:17;20.20;99.90
60723;DHT22;46574;52.818;6.516;2022-07-01T12:57:43;20.10;99.90
60723;DHT22;46574;52.818;6.516;2022-07-01T13:00:09;20.00;99.90
60723;DHT22;46574;52.818;6.516;2022-07-01T13:02:34;19.90;99.90
60723;DHT22;46574;52.818;6.516;2022-07-01T13:05:00;19.80;99.90
60723;DHT22;46574;52.818;6.516;2022-07-01T13:07:26;19.70;99.90
60723;DHT22;46574;52.818;6.516;2022-07-01T13:09:51;19.80;99.90
60723;DHT22;46574;52.818;6.516;2022-07-01T13:12:17;19.70;99.90
60723;DHT22;46574;52.818;6.516;2022-07-01T13:14:43;19.80;99.90
60723;DHT22;46574;52.818;6.516;2022-07-01T13:17:09;20.00;99.90
60723;DHT22;46574;52.818;6.516;2022-07-01T13:19:35;20.10;99.90
60723;DHT22;46574;52.818;6.516;2022-07-01T13:22:03;20.00;99.90
60723;DHT22;46574;52.818;6.516;2022-07-01T13:24:29;20.00;99.90
60723;DHT22;46574;52.818;6.516;2022-07-01T13:26:54;20.00;99.90
60723;DHT22;46574;52.818;6.516;2022-07-01T13:29:20;19.90;99.90
60723;DHT22;46574;52.818;6.516;2022-07-01T13:31:46;19.90;99.90
60723;DHT22;46574;52.818;6.516;2022-07-01T13:34:12;19.80;99.90
60723;DHT22;46574;52.818;6.516;2022-07-01T13:36:37;19.90;99.90
60723;DHT22;46574;52.818;6.516;2022-07-01T13:39:03;20.20;99.90
60723;DHT22;46574;52.818;6.516;2022-07-01T13:41:28;20.60;99.90
60723;DHT22;46574;52.818;6.516;2022-07-01T13:43:54;20.70;99.90
60723;DHT22;46574;52.818;6.516;2022-07-01T13:46:20;20.60;99.90
60723;DHT22;46574;52.818;6.516;2022-07-01T13:48:46;20.30;99.90
60723;DHT22;46574;52.818;6.516;2022-07-01T13:51:12;20.30;99.90
60723;DHT22;46574;52.818;6.516;2022-07-01T13:53:38;20.30;99.90
60723;DHT22;46574;52.818;6.516;2022-07-01T13:56:03;20.50;99.90
60723;DHT22;46574;52.818;6.516;2022-07-01T13:58:29;20.80;99.90
60723;DHT22;46574;52.818;6.516;2022-07-01T14:00:55;21.10;99.90
60723;DHT22;46574;52.818;6.516;2022-07-01T14:03:21;21.10;99.90
60723;DHT22;46574;52.818;6.516;2022-07-01T14:05:47;21.00;99.90
60723;DHT22;46574;52.818;6.516;2022-07-01T14:08:13;20.90;99.90
60723;DHT22;46574;52.818;6.516;2022-07-01T14:10:41;20.80;99.90
60723;DHT22;46574;52.818;6.516;2022-07-01T14:13:06;21.20;99.90
60723;DHT22;46574;52.818;6.516;2022-07-01T14:15:32;21.50;99.90
60723;DHT22;46574;52.818;6.516;2022-07-01T14:17:58;21.80;99.90
60723;DHT22;46574;52.818;6.516;2022-07-01T14:20:23;22.00;99.90
60723;DHT22;46574;52.818;6.516;2022-07-01T14:22:49;22.00;93.00
60723;DHT22;46574;52.818;6.516;2022-07-01T14:25:15;21.60;93.90
60723;DHT22;46574;52.818;6.516;2022-07-01T14:27:41;21.40;99.90
60723;DHT22;46574;52.818;6.516;2022-07-01T14:30:07;21.20;99.90
60723;DHT22;46574;52.818;6.516;2022-07-01T14:32:34;21.00;99.90
60723;DHT22;46574;52.818;6.516;2022-07-01T14:35:00;20.80;98.70
60723;DHT22;46574;52.818;6.516;2022-07-01T14:37:27;20.70;99.90
60723;DHT22;46574;52.818;6.516;2022-07-01T14:39:53;20.60;99.80
60723;DHT22;46574;52.818;6.516;2022-07-01T14:42:24;20.50;99.90
60723;DHT22;46574;52.818;6.516;2022-07-01T14:44:50;20.50;99.90
60723;DHT22;46574;52.818;6.516;2022-07-01T14:47:16;20.50;99.90
60723;DHT22;46574;52.818;6.516;2022-07-01T14:49:42;20.30;99.90
60723;DHT22;46574;52.818;6.516;2022-07-01T14:52:13;20.30;99.90
60723;DHT22;46574;52.818;6.516;2022-07-01T14:54:40;20.80;99.90
60723;DHT22;46574;52.818;6.516;2022-07-01T14:57:05;21.60;99.90
60723;DHT22;46574;52.818;6.516;2022-07-01T14:59:31;21.60;99.90
60723;DHT22;46574;52.818;6.516;2022-07-01T15:01:57;21.40;99.70
60723;DHT22;46574;52.818;6.516;2022-07-01T15:04:26;21.10;99.90
60723;DHT22;46574;52.818;6.516;2022-07-01T15:06:51;20.80;99.90
60723;DHT22;46574;52.818;6.516;2022-07-01T15:09:17;20.50;99.90
60723;DHT22;46574;52.818;6.516;2022-07-01T15:11:47;20.30;99.90
60723;DHT22;46574;52.818;6.516;2022-07-01T15:14:13;20.30;99.90
60723;DHT22;46574;52.818;6.516;2022-07-01T15:16:39;21.20;99.90
60723;DHT22;46574;52.818;6.516;2022-07-01T15:19:05;21.40;99.90
60723;DHT22;46574;52.818;6.516;2022-07-01T15:21:31;21.30;97.10
60723;DHT22;46574;52.818;6.516;2022-07-01T15:23:56;21.20;91.20
60723;DHT22;46574;52.818;6.516;2022-07-01T15:26:22;20.90;97.60
60723;DHT22;46574;52.818;6.516;2022-07-01T15:28:48;20.70;97.90
60723;DHT22;46574;52.818;6.516;2022-07-01T15:31:14;20.50;99.90
60723;DHT22;46574;52.818;6.516;2022-07-01T15:33:41;20.50;99.90
60723;DHT22;46574;52.818;6.516;2022-07-01T15:36:06;20.60;99.90
60723;DHT22;46574;52.818;6.516;2022-07-01T15:38:32;21.00;99.90
60723;DHT22;46574;52.818;6.516;2022-07-01T15:40:58;22.00;95.40
60723;DHT22;46574;52.818;6.516;2022-07-01T15:43:24;22.40;95.00
60723;DHT22;46574;52.818;6.516;2022-07-01T15:45:50;22.90;96.30
60723;DHT22;46574;52.818;6.516;2022-07-01T15:48:15;23.50;85.50
60723;DHT22;46574;52.818;6.516;2022-07-01T15:50:42;23.20;74.20
60723;DHT22;46574;52.818;6.516;2022-07-01T15:53:08;22.80;69.40
60723;DHT22;46574;52.818;6.516;2022-07-01T15:55:35;23.50;70.30
60723;DHT22;46574;52.818;6.516;2022-07-01T15:58:03;23.60;66.60
60723;DHT22;46574;52.818;6.516;2022-07-01T16:00:29;23.00;66.60